PWSweather.com
Personal Weather Stations
Station Observations
KTXPLANO60
Highlands Of Russell Park, Plano, TX 75025

Highlands Of Russell ParkPlano, TX 75025

Lat: 33.10431671, Lon: -96.75176239

Elevation: 761

Station Type: Davis Wireless VP2 Plus

http://www.planoweather.com

Latest ConditionsUpdated 2:30:04 PM CST Monday, Mar 2, 2015
Currently Today's Max Today's Min Today's Average
Temperature 40.6°F4.8°C 40.8°F4.9°C 32.9°F0.5°C 35.4°F1.9°C
Dew Point 38.5°F3.6°C 39.3°F4.1°C 31.6°F-0.2°C 34.0°F1.1°C
Winds 1.6 mph NE2.6 kmh NE 8.6 mph N13.8 kmh N - 4.6 mph 7.4 kmh
Wind Gusts 3.0 mph4.8 kmh 14.0 mph22.5 kmh - -
Humidity 92% 96% 92% 95%
Pressure 30.24 in1024.0 mb 30.38 in1028.8 mb 30.24 in1024.0 mb -
Precipitation - 0.06 in1.5 mm - -
Hour Temp Dew Point Humidity Winds Wind Gusts Pressure Precip Precip Rate Daily Precip Total
02:30 PM 40.6°F4.8°C 38.5°F3.6°C 92% 1.6 mph NE2.6 kmh NE 3.0 mph4.8 kmh 30.24 in1024.0 mb 0.00 in0.0 mm 0.00 in/hr0.0 mm/hr 0.06 in1.5 mm
02:20 PM 40.5°F4.7°C 38.4°F3.6°C 92% Calm Calm -- 30.25 in1024.4 mb 0.00 in0.0 mm 0.00 in/hr0.0 mm/hr 0.06 in1.5 mm
02:10 PM 40.6°F4.8°C 38.5°F3.6°C 92% 1.5 mph NE2.4 kmh NE 3.0 mph4.8 kmh 30.26 in1024.7 mb 0.00 in0.0 mm 0.00 in/hr0.0 mm/hr 0.06 in1.5 mm
02:00 PM 40.8°F4.9°C 38.7°F3.7°C 92% 0.6 mph NE1.0 kmh NE -- 30.25 in1024.4 mb 0.00 in0.0 mm 0.00 in/hr0.0 mm/hr 0.06 in1.5 mm
01:50 PM 40.6°F4.8°C 38.7°F3.7°C 93% 2.3 mph NE3.7 kmh NE 4.0 mph6.4 kmh 30.25 in1024.4 mb 0.00 in0.0 mm 0.00 in/hr0.0 mm/hr 0.06 in1.5 mm
01:40 PM 40.4°F4.7°C 38.3°F3.5°C 92% Calm Calm -- 30.27 in1025.1 mb 0.00 in0.0 mm 0.00 in/hr0.0 mm/hr 0.06 in1.5 mm
01:30 PM 40.6°F4.8°C 38.7°F3.7°C 93% 1.4 mph NE2.3 kmh NE 2.0 mph3.2 kmh 30.27 in1025.1 mb 0.00 in0.0 mm 0.00 in/hr0.0 mm/hr 0.06 in1.5 mm
01:20 PM 40.5°F4.7°C 38.6°F3.7°C 93% 0.7 mph NE1.1 kmh NE 2.0 mph3.2 kmh 30.28 in1025.4 mb 0.00 in0.0 mm 0.00 in/hr0.0 mm/hr 0.06 in1.5 mm
01:10 PM 40.5°F4.7°C 38.6°F3.7°C 93% 2.2 mph NE3.5 kmh NE 3.0 mph4.8 kmh 30.29 in1025.7 mb 0.00 in0.0 mm 0.00 in/hr0.0 mm/hr 0.06 in1.5 mm
01:00 PM 40.5°F4.7°C 38.6°F3.7°C 93% Calm Calm -- 30.30 in1026.1 mb 0.00 in0.0 mm 0.00 in/hr0.0 mm/hr 0.06 in1.5 mm
12:50 PM 40.6°F4.8°C 38.7°F3.7°C 93% 3.2 mph NE5.1 kmh NE 5.0 mph8.0 kmh 30.29 in1025.7 mb 0.00 in0.0 mm 0.00 in/hr0.0 mm/hr 0.06 in1.5 mm
12:40 PM 40.7°F4.8°C 39.1°F3.9°C 94% 4.2 mph NE6.8 kmh NE 6.0 mph9.7 kmh 30.30 in1026.1 mb 0.00 in0.0 mm 0.00 in/hr0.0 mm/hr 0.06 in1.5 mm
12:30 PM 40.6°F4.8°C 39.3°F4.1°C 95% 3.2 mph NE5.1 kmh NE 5.0 mph8.0 kmh 30.31 in1026.4 mb 0.00 in0.0 mm 0.00 in/hr0.0 mm/hr 0.06 in1.5 mm
12:20 PM 39.9°F4.4°C 38.6°F3.7°C 95% 1.4 mph NE2.3 kmh NE 4.0 mph6.4 kmh 30.32 in1026.8 mb 0.00 in0.0 mm 0.00 in/hr0.0 mm/hr 0.06 in1.5 mm
12:10 PM 39.3°F4.1°C 38.0°F3.3°C 95% 1.4 mph NE2.3 kmh NE 3.0 mph4.8 kmh 30.33 in1027.1 mb 0.00 in0.0 mm 0.00 in/hr0.0 mm/hr 0.06 in1.5 mm
12:00 PM 38.9°F3.8°C 37.6°F3.1°C 95% 3.8 mph NE6.1 kmh NE 6.0 mph9.7 kmh 30.32 in1026.8 mb 0.00 in0.0 mm 0.00 in/hr0.0 mm/hr 0.06 in1.5 mm
11:50 AM 38.8°F3.8°C 37.8°F3.2°C 96% 3.6 mph NNE5.8 kmh NNE 6.0 mph9.7 kmh 30.33 in1027.1 mb 0.00 in0.0 mm 0.00 in/hr0.0 mm/hr 0.06 in1.5 mm
11:40 AM 38.5°F3.6°C 37.5°F3.1°C 96% 3.4 mph NE5.5 kmh NE 6.0 mph9.7 kmh 30.34 in1027.4 mb 0.00 in0.0 mm 0.00 in/hr0.0 mm/hr 0.06 in1.5 mm
11:30 AM 38.6°F3.7°C 37.5°F3.1°C 96% 4.6 mph NE7.4 kmh NE 7.0 mph11.3 kmh 30.34 in1027.4 mb 0.00 in0.0 mm 0.00 in/hr0.0 mm/hr 0.06 in1.5 mm
11:20 AM 37.4°F3.0°C 36.4°F2.4°C 96% 3.1 mph NNE5.0 kmh NNE 7.0 mph11.3 kmh 30.35 in1027.8 mb 0.00 in0.0 mm 0.00 in/hr0.0 mm/hr 0.06 in1.5 mm
11:10 AM 37.0°F2.8°C 36.0°F2.2°C 96% 2.8 mph N4.5 kmh N 6.0 mph9.7 kmh 30.36 in1028.1 mb 0.00 in0.0 mm 0.00 in/hr0.0 mm/hr 0.06 in1.5 mm
11:00 AM 36.6°F2.6°C 35.6°F2.0°C 96% 3.3 mph NNW5.3 kmh NNW 5.0 mph8.0 kmh 30.38 in1028.8 mb 0.00 in0.0 mm 0.00 in/hr0.0 mm/hr 0.06 in1.5 mm
10:50 AM 36.5°F2.5°C 35.5°F1.9°C 96% 2.8 mph NNW4.5 kmh NNW 5.0 mph8.0 kmh 30.37 in1028.4 mb 0.00 in0.0 mm 0.00 in/hr0.0 mm/hr 0.06 in1.5 mm
10:40 AM 36.4°F2.4°C 35.4°F1.9°C 96% 1.1 mph N1.8 kmh N 2.0 mph3.2 kmh 30.37 in1028.4 mb 0.00 in0.0 mm 0.00 in/hr0.0 mm/hr 0.06 in1.5 mm
10:30 AM 35.9°F2.2°C 34.9°F1.6°C 96% 4.1 mph N6.6 kmh N 6.0 mph9.7 kmh 30.37 in1028.4 mb 0.00 in0.0 mm 0.00 in/hr0.0 mm/hr 0.06 in1.5 mm
10:20 AM 35.7°F2.1°C 34.7°F1.5°C 96% 4.9 mph N7.9 kmh N 7.0 mph11.3 kmh 30.37 in1028.4 mb 0.00 in0.0 mm 0.00 in/hr0.0 mm/hr 0.06 in1.5 mm
10:10 AM 35.4°F1.9°C 34.4°F1.3°C 96% 4.4 mph NNE7.1 kmh NNE 7.0 mph11.3 kmh 30.37 in1028.4 mb 0.00 in0.0 mm 0.00 in/hr0.0 mm/hr 0.06 in1.5 mm
10:00 AM 35.0°F1.7°C 34.0°F1.1°C 96% 3.7 mph N6.0 kmh N 7.0 mph11.3 kmh 30.37 in1028.4 mb 0.00 in0.0 mm 0.00 in/hr0.0 mm/hr 0.06 in1.5 mm
09:50 AM 34.6°F1.4°C 33.6°F0.9°C 96% 2.9 mph N4.7 kmh N 6.0 mph9.7 kmh 30.38 in1028.8 mb 0.01 in0.3 mm 0.06 in/hr1.5 mm/hr 0.06 in1.5 mm
09:40 AM 34.3°F1.3°C 33.3°F0.7°C 96% 3.4 mph N5.5 kmh N 7.0 mph11.3 kmh 30.38 in1028.8 mb 0.00 in0.0 mm 0.00 in/hr0.0 mm/hr 0.05 in1.3 mm
09:30 AM 34.2°F1.2°C 33.2°F0.7°C 96% 6.6 mph N10.6 kmh N 8.0 mph12.9 kmh 30.38 in1028.8 mb 0.00 in0.0 mm 0.00 in/hr0.0 mm/hr 0.05 in1.3 mm
09:20 AM 33.9°F1.1°C 32.9°F0.5°C 96% 3.7 mph N6.0 kmh N 8.0 mph12.9 kmh 30.38 in1028.8 mb 0.00 in0.0 mm 0.00 in/hr0.0 mm/hr 0.05 in1.3 mm
09:10 AM 33.8°F1.0°C 32.8°F0.4°C 96% 4.1 mph NW6.6 kmh NW 6.0 mph9.7 kmh 30.38 in1028.8 mb 0.00 in0.0 mm 0.00 in/hr0.0 mm/hr 0.05 in1.3 mm
09:00 AM 33.7°F0.9°C 32.7°F0.4°C 96% 6.1 mph NNW9.8 kmh NNW 9.0 mph14.5 kmh 30.38 in1028.8 mb 0.00 in0.0 mm 0.00 in/hr0.0 mm/hr 0.05 in1.3 mm
08:50 AM 33.5°F0.8°C 32.5°F0.3°C 96% 6.7 mph NNE10.8 kmh NNE 8.0 mph12.9 kmh 30.38 in1028.8 mb 0.00 in0.0 mm 0.00 in/hr0.0 mm/hr 0.05 in1.3 mm
08:40 AM 33.4°F0.8°C 32.4°F0.2°C 96% 4.4 mph N7.1 kmh N 7.0 mph11.3 kmh 30.37 in1028.4 mb 0.00 in0.0 mm 0.00 in/hr0.0 mm/hr 0.05 in1.3 mm
08:30 AM 33.3°F0.7°C 32.3°F0.2°C 96% 4.9 mph N7.9 kmh N 9.0 mph14.5 kmh 30.37 in1028.4 mb 0.00 in0.0 mm 0.00 in/hr0.0 mm/hr 0.05 in1.3 mm
08:20 AM 33.3°F0.7°C 32.3°F0.2°C 96% 5.0 mph NNE8.0 kmh NNE 6.0 mph9.7 kmh 30.37 in1028.4 mb 0.00 in0.0 mm 0.00 in/hr0.0 mm/hr 0.05 in1.3 mm
08:10 AM 33.2°F0.7°C 32.2°F0.1°C 96% 3.6 mph N5.8 kmh N 7.0 mph11.3 kmh 30.37 in1028.4 mb 0.00 in0.0 mm 0.00 in/hr0.0 mm/hr 0.05 in1.3 mm
08:00 AM 33.1°F0.6°C 32.1°F0.1°C 96% 3.3 mph N5.3 kmh N 5.0 mph8.0 kmh 30.37 in1028.4 mb 0.00 in0.0 mm 0.00 in/hr0.0 mm/hr 0.05 in1.3 mm
07:50 AM 33.0°F0.6°C 32.0°F0.0°C 96% 5.2 mph NNE8.4 kmh NNE 7.0 mph11.3 kmh 30.36 in1028.1 mb 0.00 in0.0 mm 0.00 in/hr0.0 mm/hr 0.05 in1.3 mm
07:40 AM 33.0°F0.6°C 31.7°F-0.2°C 95% 4.0 mph N6.4 kmh N 5.0 mph8.0 kmh 30.36 in1028.1 mb 0.00 in0.0 mm 0.00 in/hr0.0 mm/hr 0.05 in1.3 mm
07:30 AM 33.0°F0.6°C 31.7°F-0.2°C 95% 5.9 mph N9.5 kmh N 8.0 mph12.9 kmh 30.36 in1028.1 mb 0.00 in0.0 mm 0.00 in/hr0.0 mm/hr 0.05 in1.3 mm
07:20 AM 32.9°F0.5°C 31.6°F-0.2°C 95% 4.1 mph N6.6 kmh N 6.0 mph9.7 kmh 30.36 in1028.1 mb 0.01 in0.3 mm 0.06 in/hr1.5 mm/hr 0.05 in1.3 mm
07:10 AM 32.9°F0.5°C 31.6°F-0.2°C 95% 3.9 mph N6.3 kmh N 7.0 mph11.3 kmh 30.36 in1028.1 mb 0.00 in0.0 mm 0.00 in/hr0.0 mm/hr 0.04 in1.0 mm
07:00 AM 32.9°F0.5°C 31.6°F-0.2°C 95% 4.5 mph NW7.2 kmh NW 8.0 mph12.9 kmh 30.36 in1028.1 mb 0.00 in0.0 mm 0.00 in/hr0.0 mm/hr 0.04 in1.0 mm
06:50 AM 33.0°F0.6°C 31.7°F-0.2°C 95% 3.9 mph NNW6.3 kmh NNW 8.0 mph12.9 kmh 30.36 in1028.1 mb 0.00 in0.0 mm 0.00 in/hr0.0 mm/hr 0.04 in1.0 mm
06:40 AM 33.0°F0.6°C 31.7°F-0.2°C 95% 8.3 mph N13.4 kmh N 12.0 mph19.3 kmh 30.36 in1028.1 mb 0.00 in0.0 mm 0.00 in/hr0.0 mm/hr 0.04 in1.0 mm
06:30 AM 33.1°F0.6°C 31.8°F-0.1°C 95% 6.3 mph NNW10.1 kmh NNW 9.0 mph14.5 kmh 30.36 in1028.1 mb 0.00 in0.0 mm 0.00 in/hr0.0 mm/hr 0.04 in1.0 mm
06:20 AM 33.1°F0.6°C 31.8°F-0.1°C 95% 1.3 mph N2.1 kmh N 2.0 mph3.2 kmh 30.36 in1028.1 mb 0.00 in0.0 mm 0.00 in/hr0.0 mm/hr 0.04 in1.0 mm
06:10 AM 33.1°F0.6°C 31.8°F-0.1°C 95% 5.7 mph N9.2 kmh N 6.0 mph9.7 kmh 30.36 in1028.1 mb 0.00 in0.0 mm 0.00 in/hr0.0 mm/hr 0.04 in1.0 mm
06:00 AM 33.1°F0.6°C 31.8°F-0.1°C 95% 5.5 mph N8.9 kmh N 10.0 mph16.1 kmh 30.36 in1028.1 mb 0.00 in0.0 mm 0.00 in/hr0.0 mm/hr 0.04 in1.0 mm
05:50 AM 33.1°F0.6°C 31.9°F-0.1°C 95% 5.5 mph NE8.9 kmh NE 8.0 mph12.9 kmh 30.36 in1028.1 mb 0.00 in0.0 mm 0.00 in/hr0.0 mm/hr 0.04 in1.0 mm
05:40 AM 33.1°F0.6°C 31.8°F-0.1°C 95% 6.4 mph N10.3 kmh N 11.0 mph17.7 kmh 30.35 in1027.8 mb 0.00 in0.0 mm 0.00 in/hr0.0 mm/hr 0.04 in1.0 mm
05:30 AM 33.1°F0.6°C 31.8°F-0.1°C 95% 6.5 mph NE10.5 kmh NE 10.0 mph16.1 kmh 30.34 in1027.4 mb 0.00 in0.0 mm 0.00 in/hr0.0 mm/hr 0.04 in1.0 mm
05:20 AM 33.2°F0.7°C 31.9°F-0.1°C 95% 6.1 mph N9.8 kmh N 11.0 mph17.7 kmh 30.34 in1027.4 mb 0.00 in0.0 mm 0.00 in/hr0.0 mm/hr 0.04 in1.0 mm
05:10 AM 33.1°F0.6°C 31.8°F-0.1°C 95% 5.4 mph NE8.7 kmh NE 7.0 mph11.3 kmh 30.34 in1027.4 mb 0.00 in0.0 mm 0.00 in/hr0.0 mm/hr 0.04 in1.0 mm
05:00 AM 33.2°F0.7°C 31.9°F-0.1°C 95% 7.5 mph NNE12.1 kmh NNE 12.0 mph19.3 kmh 30.34 in1027.4 mb 0.00 in0.0 mm 0.00 in/hr0.0 mm/hr 0.04 in1.0 mm
04:50 AM 33.1°F0.6°C 31.8°F-0.1°C 95% 5.8 mph N9.3 kmh N 9.0 mph14.5 kmh 30.34 in1027.4 mb 0.00 in0.0 mm 0.00 in/hr0.0 mm/hr 0.04 in1.0 mm
04:40 AM 33.1°F0.6°C 31.8°F-0.1°C 95% 7.8 mph N12.6 kmh N 11.0 mph17.7 kmh 30.34 in1027.4 mb 0.00 in0.0 mm 0.00 in/hr0.0 mm/hr 0.04 in1.0 mm
04:30 AM 33.2°F0.7°C 31.9°F-0.1°C 95% 7.5 mph N12.1 kmh N 13.0 mph20.9 kmh 30.34 in1027.4 mb 0.00 in0.0 mm 0.00 in/hr0.0 mm/hr 0.04 in1.0 mm
04:20 AM 33.3°F0.7°C 32.0°F0.0°C 95% 8.6 mph N13.8 kmh N 10.0 mph16.1 kmh 30.35 in1027.8 mb 0.01 in0.3 mm 0.06 in/hr1.5 mm/hr 0.04 in1.0 mm
04:10 AM 33.5°F0.8°C 32.2°F0.1°C 95% 7.9 mph N12.7 kmh N 11.0 mph17.7 kmh 30.36 in1028.1 mb 0.00 in0.0 mm 0.00 in/hr0.0 mm/hr 0.03 in0.8 mm
04:00 AM 33.6°F0.9°C 32.3°F0.2°C 95% 6.8 mph NNW10.9 kmh NNW 9.0 mph14.5 kmh 30.35 in1027.8 mb 0.00 in0.0 mm 0.00 in/hr0.0 mm/hr 0.03 in0.8 mm
03:50 AM 33.6°F0.9°C 32.3°F0.2°C 95% 8.3 mph NNE13.4 kmh NNE 12.0 mph19.3 kmh 30.35 in1027.8 mb 0.01 in0.3 mm 0.06 in/hr1.5 mm/hr 0.03 in0.8 mm
03:40 AM 33.7°F0.9°C 32.4°F0.2°C 95% 6.7 mph N10.8 kmh N 11.0 mph17.7 kmh 30.35 in1027.8 mb 0.00 in0.0 mm 0.00 in/hr0.0 mm/hr 0.02 in0.5 mm
03:30 AM 33.7°F0.9°C 32.4°F0.2°C 95% 8.2 mph N13.2 kmh N 12.0 mph19.3 kmh 30.35 in1027.8 mb 0.00 in0.0 mm 0.00 in/hr0.0 mm/hr 0.02 in0.5 mm
03:20 AM 33.8°F1.0°C 32.3°F0.2°C 94% 7.8 mph N12.6 kmh N 9.0 mph14.5 kmh 30.35 in1027.8 mb 0.00 in0.0 mm 0.00 in/hr0.0 mm/hr 0.02 in0.5 mm
03:10 AM 33.8°F1.0°C 32.3°F0.2°C 94% 6.1 mph N9.8 kmh N 10.0 mph16.1 kmh 30.36 in1028.1 mb 0.00 in0.0 mm 0.00 in/hr0.0 mm/hr 0.02 in0.5 mm
03:00 AM 33.9°F1.1°C 32.4°F0.2°C 94% 5.3 mph N8.5 kmh N 7.0 mph11.3 kmh 30.37 in1028.4 mb 0.00 in0.0 mm 0.00 in/hr0.0 mm/hr 0.02 in0.5 mm
02:50 AM 34.1°F1.2°C 32.6°F0.3°C 94% 5.9 mph N9.5 kmh N 8.0 mph12.9 kmh 30.36 in1028.1 mb 0.00 in0.0 mm 0.00 in/hr0.0 mm/hr 0.02 in0.5 mm
02:40 AM 34.3°F1.3°C 32.8°F0.4°C 94% 3.5 mph N5.6 kmh N 9.0 mph14.5 kmh 30.37 in1028.4 mb 0.00 in0.0 mm 0.00 in/hr0.0 mm/hr 0.02 in0.5 mm
02:30 AM 34.4°F1.3°C 32.6°F0.3°C 93% 6.7 mph N10.8 kmh N 11.0 mph17.7 kmh 30.37 in1028.4 mb 0.00 in0.0 mm 0.00 in/hr0.0 mm/hr 0.02 in0.5 mm
02:20 AM 34.5°F1.4°C 32.7°F0.4°C 93% 7.2 mph N11.6 kmh N 8.0 mph12.9 kmh 30.38 in1028.8 mb 0.00 in0.0 mm 0.00 in/hr0.0 mm/hr 0.02 in0.5 mm
02:10 AM 34.5°F1.4°C 32.7°F0.4°C 93% 5.5 mph NW8.9 kmh NW 9.0 mph14.5 kmh 30.38 in1028.8 mb 0.00 in0.0 mm 0.00 in/hr0.0 mm/hr 0.02 in0.5 mm
02:00 AM 34.5°F1.4°C 32.4°F0.2°C 92% 6.5 mph NNW10.5 kmh NNW 9.0 mph14.5 kmh 30.38 in1028.8 mb 0.01 in0.3 mm 0.01 in/hr0.3 mm/hr 0.02 in0.5 mm
01:50 AM 34.5°F1.4°C 32.4°F0.2°C 92% 5.3 mph NNW8.5 kmh NNW 10.0 mph16.1 kmh 30.38 in1028.8 mb 0.00 in0.0 mm 0.00 in/hr0.0 mm/hr 0.01 in0.3 mm
01:40 AM 34.5°F1.4°C 32.4°F0.2°C 92% 4.9 mph NNW7.9 kmh NNW 10.0 mph16.1 kmh 30.37 in1028.4 mb 0.00 in0.0 mm 0.00 in/hr0.0 mm/hr 0.01 in0.3 mm
01:30 AM 34.5°F1.4°C 32.4°F0.2°C 92% 8.4 mph N13.5 kmh N 14.0 mph22.5 kmh 30.37 in1028.4 mb 0.00 in0.0 mm 0.00 in/hr0.0 mm/hr 0.01 in0.3 mm